sensor_id;sensor_type;location;lat;lon;timestamp;temperature;humidity
51567;DHT22;37657;53.182;5.638;2022-08-07T00:01:26;13.00;99.90
51567;DHT22;37657;53.182;5.638;2022-08-07T00:03:51;12.90;99.90
51567;DHT22;37657;53.182;5.638;2022-08-07T00:06:17;13.00;99.90
51567;DHT22;37657;53.182;5.638;2022-08-07T00:08:43;12.90;99.90
51567;DHT22;37657;53.182;5.638;2022-08-07T00:11:08;12.90;99.90
51567;DHT22;37657;53.182;5.638;2022-08-07T00:13:34;12.80;99.90
51567;DHT22;37657;53.182;5.638;2022-08-07T00:16:03;12.80;99.90
51567;DHT22;37657;53.182;5.638;2022-08-07T00:18:28;12.70;99.90
51567;DHT22;37657;53.182;5.638;2022-08-07T00:20:57;12.70;99.90
51567;DHT22;37657;53.182;5.638;2022-08-07T00:23:23;12.80;99.90
51567;DHT22;37657;53.182;5.638;2022-08-07T00:25:49;12.70;99.90
51567;DHT22;37657;53.182;5.638;2022-08-07T00:28:15;12.70;99.90
51567;DHT22;37657;53.182;5.638;2022-08-07T00:30:40;12.80;99.90
51567;DHT22;37657;53.182;5.638;2022-08-07T00:33:06;12.80;99.90
51567;DHT22;37657;53.182;5.638;2022-08-07T00:35:32;12.80;99.90
51567;DHT22;37657;53.182;5.638;2022-08-07T00:37:58;12.90;99.90
51567;DHT22;37657;53.182;5.638;2022-08-07T00:40:24;12.90;99.90
51567;DHT22;37657;53.182;5.638;2022-08-07T00:42:49;12.80;99.90
51567;DHT22;37657;53.182;5.638;2022-08-07T00:45:15;12.80;99.90
51567;DHT22;37657;53.182;5.638;2022-08-07T00:47:40;12.70;99.90
51567;DHT22;37657;53.182;5.638;2022-08-07T00:50:06;12.60;99.90
51567;DHT22;37657;53.182;5.638;2022-08-07T00:52:39;12.60;99.90
51567;DHT22;37657;53.182;5.638;2022-08-07T00:55:05;12.60;99.90
51567;DHT22;37657;53.182;5.638;2022-08-07T00:57:31;12.50;99.90
51567;DHT22;37657;53.182;5.638;2022-08-07T00:59:57;12.50;99.90
51567;DHT22;37657;53.182;5.638;2022-08-07T01:02:24;12.40;99.90
51567;DHT22;37657;53.182;5.638;2022-08-07T01:04:51;12.40;99.90
51567;DHT22;37657;53.182;5.638;2022-08-07T01:07:19;12.30;99.90
51567;DHT22;37657;53.182;5.638;2022-08-07T01:09:45;12.40;99.90
51567;DHT22;37657;53.182;5.638;2022-08-07T01:12:15;12.20;99.90
51567;DHT22;37657;53.182;5.638;2022-08-07T01:14:41;12.30;99.90
51567;DHT22;37657;53.182;5.638;2022-08-07T01:17:08;12.20;99.90
51567;DHT22;37657;53.182;5.638;2022-08-07T01:19:34;12.20;99.90
51567;DHT22;37657;53.182;5.638;2022-08-07T01:22:02;12.20;99.90
51567;DHT22;37657;53.182;5.638;2022-08-07T01:24:28;12.30;99.90
51567;DHT22;37657;53.182;5.638;2022-08-07T01:26:55;12.30;99.90
51567;DHT22;37657;53.182;5.638;2022-08-07T01:29:26;12.30;99.90
51567;DHT22;37657;53.182;5.638;2022-08-07T01:31:52;12.40;99.90
51567;DHT22;37657;53.182;5.638;2022-08-07T01:34:19;12.40;99.90
51567;DHT22;37657;53.182;5.638;2022-08-07T01:36:45;12.30;99.90
51567;DHT22;37657;53.182;5.638;2022-08-07T01:39:12;12.30;99.90
51567;DHT22;37657;53.182;5.638;2022-08-07T01:41:38;12.30;99.90
51567;DHT22;37657;53.182;5.638;2022-08-07T01:44:04;12.20;99.90
51567;DHT22;37657;53.182;5.638;2022-08-07T01:46:30;12.20;99.90
51567;DHT22;37657;53.182;5.638;2022-08-07T01:48:56;12.20;99.90
51567;DHT22;37657;53.182;5.638;2022-08-07T01:51:24;12.10;99.90
51567;DHT22;37657;53.182;5.638;2022-08-07T01:53:55;12.10;99.90
51567;DHT22;37657;53.182;5.638;2022-08-07T01:56:25;12.10;99.90
51567;DHT22;37657;53.182;5.638;2022-08-07T01:59:02;12.00;99.90
51567;DHT22;37657;53.182;5.638;2022-08-07T02:01:34;12.00;99.90
51567;DHT22;37657;53.182;5.638;2022-08-07T02:04:04;12.10;99.90
51567;DHT22;37657;53.182;5.638;2022-08-07T02:06:33;12.10;99.90
51567;DHT22;37657;53.182;5.638;2022-08-07T02:09:05;12.10;99.90
51567;DHT22;37657;53.182;5.638;2022-08-07T02:11:38;12.00;99.90
51567;DHT22;37657;53.182;5.638;2022-08-07T02:14:06;11.90;99.90
51567;DHT22;37657;53.182;5.638;2022-08-07T02:16:35;11.90;99.90
51567;DHT22;37657;53.182;5.638;2022-08-07T02:19:05;11.80;99.90
51567;DHT22;37657;53.182;5.638;2022-08-07T02:21:34;11.80;99.90
51567;DHT22;37657;53.182;5.638;2022-08-07T02:24:03;11.80;99.90
51567;DHT22;37657;53.182;5.638;2022-08-07T02:26:29;11.90;99.90
51567;DHT22;37657;53.182;5.638;2022-08-07T02:28:56;11.80;99.90
51567;DHT22;37657;53.182;5.638;2022-08-07T02:31:22;11.90;99.90
51567;DHT22;37657;53.182;5.638;2022-08-07T02:33:50;12.00;99.90
51567;DHT22;37657;53.182;5.638;2022-08-07T02:36:17;12.00;99.90
51567;DHT22;37657;53.182;5.638;2022-08-07T02:38:44;12.00;99.90
51567;DHT22;37657;53.182;5.638;2022-08-07T02:41:11;11.90;99.90
51567;DHT22;37657;53.182;5.638;2022-08-07T02:43:40;11.80;99.90
51567;DHT22;37657;53.182;5.638;2022-08-07T02:46:07;11.90;99.90
51567;DHT22;37657;53.182;5.638;2022-08-07T02:48:34;11.80;99.90
51567;DHT22;37657;53.182;5.638;2022-08-07T02:51:09;11.80;99.90
51567;DHT22;37657;53.182;5.638;2022-08-07T02:53:37;12.00;99.90
51567;DHT22;37657;53.182;5.638;2022-08-07T02:56:06;11.90;99.90
51567;DHT22;37657;53.182;5.638;2022-08-07T02:58:33;12.00;99.90
51567;DHT22;37657;53.182;5.638;2022-08-07T03:01:01;11.90;99.90
51567;DHT22;37657;53.182;5.638;2022-08-07T03:03:30;12.00;99.90
51567;DHT22;37657;53.182;5.638;2022-08-07T03:05:57;11.90;99.90
51567;DHT22;37657;53.182;5.638;2022-08-07T03:08:23;11.90;99.90
51567;DHT22;37657;53.182;5.638;2022-08-07T03:10:49;11.90;99.90
51567;DHT22;37657;53.182;5.638;2022-08-07T03:13:16;11.80;99.90
51567;DHT22;37657;53.182;5.638;2022-08-07T03:15:42;11.90;99.90
51567;DHT22;37657;53.182;5.638;2022-08-07T03:18:09;11.80;99.90
51567;DHT22;37657;53.182;5.638;2022-08-07T03:20:36;11.80;99.90
51567;DHT22;37657;53.182;5.638;2022-08-07T03:23:02;11.90;99.90
51567;DHT22;37657;53.182;5.638;2022-08-07T03:25:31;11.90;99.90
51567;DHT22;37657;53.182;5.638;2022-08-07T03:27:58;11.80;99.90
51567;DHT22;37657;53.182;5.638;2022-08-07T03:30:25;11.80;99.90
51567;DHT22;37657;53.182;5.638;2022-08-07T03:32:51;11.70;99.90
51567;DHT22;37657;53.182;5.638;2022-08-07T03:35:22;11.80;99.90
51567;DHT22;37657;53.182;5.638;2022-08-07T03:38:03;11.80;99.90
51567;DHT22;37657;53.182;5.638;2022-08-07T03:40:30;11.70;99.90
51567;DHT22;37657;53.182;5.638;2022-08-07T03:42:56;11.80;99.90
51567;DHT22;37657;53.182;5.638;2022-08-07T03:45:24;12.00;99.90
51567;DHT22;37657;53.182;5.638;2022-08-07T03:47:51;11.80;99.90
51567;DHT22;37657;53.182;5.638;2022-08-07T03:50:18;11.90;99.90
51567;DHT22;37657;53.182;5.638;2022-08-07T03:52:47;11.80;99.90
51567;DHT22;37657;53.182;5.638;2022-08-07T03:55:14;12.00;99.90
51567;DHT22;37657;53.182;5.638;2022-08-07T03:57:41;11.90;99.90
51567;DHT22;37657;53.182;5.638;2022-08-07T04:00:08;11.90;99.90
51567;DHT22;37657;53.182;5.638;2022-08-07T04:02:34;11.90;99.90
51567;DHT22;37657;53.182;5.638;2022-08-07T04:05:00;11.90;99.90
51567;DHT22;37657;53.182;5.638;2022-08-07T04:07:25;11.80;99.90
51567;DHT22;37657;53.182;5.638;2022-08-07T04:09:51;11.90;99.90
51567;DHT22;37657;53.182;5.638;2022-08-07T04:12:17;12.00;99.90
51567;DHT22;37657;53.182;5.638;2022-08-07T04:14:44;12.00;99.90
51567;DHT22;37657;53.182;5.638;2022-08-07T04:17:10;11.90;99.90
51567;DHT22;37657;53.182;5.638;2022-08-07T04:19:39;12.00;99.90
51567;DHT22;37657;53.182;5.638;2022-08-07T04:22:05;11.90;99.90
51567;DHT22;37657;53.182;5.638;2022-08-07T04:24:32;11.80;99.90
51567;DHT22;37657;53.182;5.638;2022-08-07T04:26:58;11.70;99.90
51567;DHT22;37657;53.182;5.638;2022-08-07T04:29:27;11.60;99.90
51567;DHT22;37657;53.182;5.638;2022-08-07T04:31:54;11.70;99.90
51567;DHT22;37657;53.182;5.638;2022-08-07T04:34:21;11.80;99.90
51567;DHT22;37657;53.182;5.638;2022-08-07T04:36:47;11.80;99.90
51567;DHT22;37657;53.182;5.638;2022-08-07T04:39:12;11.90;99.90
51567;DHT22;37657;53.182;5.638;2022-08-07T04:41:38;11.80;99.90
51567;DHT22;37657;53.182;5.638;2022-08-07T04:44:04;11.90;99.90
51567;DHT22;37657;53.182;5.638;2022-08-07T04:46:41;12.00;99.90
51567;DHT22;37657;53.182;5.638;2022-08-07T04:54:38;12.60;99.90
51567;DHT22;37657;53.182;5.638;2022-08-07T04:57:22;12.70;99.90
51567;DHT22;37657;53.182;5.638;2022-08-07T05:00:08;12.80;99.90
51567;DHT22;37657;53.182;5.638;2022-08-07T05:03:03;12.80;99.90
51567;DHT22;37657;53.182;5.638;2022-08-07T05:05:39;12.90;99.90
51567;DHT22;37657;53.182;5.638;2022-08-07T05:08:25;12.90;99.90
51567;DHT22;37657;53.182;5.638;2022-08-07T05:11:04;13.00;99.90
51567;DHT22;37657;53.182;5.638;2022-08-07T05:13:43;13.00;99.90
51567;DHT22;37657;53.182;5.638;2022-08-07T05:16:13;13.10;99.90
51567;DHT22;37657;53.182;5.638;2022-08-07T05:18:47;13.30;99.90
51567;DHT22;37657;53.182;5.638;2022-08-07T05:21:17;13.50;99.90
51567;DHT22;37657;53.182;5.638;2022-08-07T05:23:48;13.70;99.90
51567;DHT22;37657;53.182;5.638;2022-08-07T05:26:20;13.90;99.90
51567;DHT22;37657;53.182;5.638;2022-08-07T05:28:49;14.00;99.90
51567;DHT22;37657;53.182;5.638;2022-08-07T05:31:21;14.20;99.90
51567;DHT22;37657;53.182;5.638;2022-08-07T05:33:48;14.20;99.90
51567;DHT22;37657;53.182;5.638;2022-08-07T05:36:18;14.30;99.90
51567;DHT22;37657;53.182;5.638;2022-08-07T05:38:45;14.40;99.90
51567;DHT22;37657;53.182;5.638;2022-08-07T05:41:12;14.50;99.90
51567;DHT22;37657;53.182;5.638;2022-08-07T05:43:39;14.60;99.90
51567;DHT22;37657;53.182;5.638;2022-08-07T05:46:05;14.60;99.90
51567;DHT22;37657;53.182;5.638;2022-08-07T05:48:31;14.70;99.90
51567;DHT22;37657;53.182;5.638;2022-08-07T05:50:58;14.80;99.90
51567;DHT22;37657;53.182;5.638;2022-08-07T05:53:25;14.80;99.90
51567;DHT22;37657;53.182;5.638;2022-08-07T05:55:53;14.90;99.90
51567;DHT22;37657;53.182;5.638;2022-08-07T05:58:20;15.00;99.90
51567;DHT22;37657;53.182;5.638;2022-08-07T06:00:47;15.10;99.90
51567;DHT22;37657;53.182;5.638;2022-08-07T06:03:14;15.10;99.90
51567;DHT22;37657;53.182;5.638;2022-08-07T06:05:41;15.20;99.90
51567;DHT22;37657;53.182;5.638;2022-08-07T06:08:07;15.30;99.90
51567;DHT22;37657;53.182;5.638;2022-08-07T06:10:35;15.30;99.90
51567;DHT22;37657;53.182;5.638;2022-08-07T06:13:01;15.40;99.90
51567;DHT22;37657;53.182;5.638;2022-08-07T06:15:28;15.50;99.90
51567;DHT22;37657;53.182;5.638;2022-08-07T06:17:54;15.50;99.90
51567;DHT22;37657;53.182;5.638;2022-08-07T06:20:23;15.60;99.90
51567;DHT22;37657;53.182;5.638;2022-08-07T06:22:51;15.70;99.90
51567;DHT22;37657;53.182;5.638;2022-08-07T06:25:18;15.70;99.90
51567;DHT22;37657;53.182;5.638;2022-08-07T06:27:44;15.80;99.90
51567;DHT22;37657;53.182;5.638;2022-08-07T06:30:09;15.90;99.90
51567;DHT22;37657;53.182;5.638;2022-08-07T06:32:35;16.00;99.90
51567;DHT22;37657;53.182;5.638;2022-08-07T06:35:01;16.00;99.90
51567;DHT22;37657;53.182;5.638;2022-08-07T06:37:27;16.20;99.90
51567;DHT22;37657;53.182;5.638;2022-08-07T06:39:53;16.20;99.90
51567;DHT22;37657;53.182;5.638;2022-08-07T06:42:29;16.30;99.90
51567;DHT22;37657;53.182;5.638;2022-08-07T06:44:58;16.40;99.90
51567;DHT22;37657;53.182;5.638;2022-08-07T06:47:25;16.50;99.90
51567;DHT22;37657;53.182;5.638;2022-08-07T06:49:50;16.50;99.90
51567;DHT22;37657;53.182;5.638;2022-08-07T06:52:17;16.60;99.90
51567;DHT22;37657;53.182;5.638;2022-08-07T06:54:43;16.70;99.90
51567;DHT22;37657;53.182;5.638;2022-08-07T06:57:10;16.70;99.90
51567;DHT22;37657;53.182;5.638;2022-08-07T06:59:39;16.80;99.90
51567;DHT22;37657;53.182;5.638;2022-08-07T07:02:08;16.90;99.90
51567;DHT22;37657;53.182;5.638;2022-08-07T07:04:37;17.00;99.90
51567;DHT22;37657;53.182;5.638;2022-08-07T07:07:02;17.10;99.90
51567;DHT22;37657;53.182;5.638;2022-08-07T07:09:31;17.10;99.90
51567;DHT22;37657;53.182;5.638;2022-08-07T07:14:50;17.30;99.90
51567;DHT22;37657;53.182;5.638;2022-08-07T07:17:30;17.40;99.90
51567;DHT22;37657;53.182;5.638;2022-08-07T07:19:59;17.40;99.90
51567;DHT22;37657;53.182;5.638;2022-08-07T07:22:27;17.40;99.90
51567;DHT22;37657;53.182;5.638;2022-08-07T07:24:54;17.50;99.90
51567;DHT22;37657;53.182;5.638;2022-08-07T07:27:22;17.60;99.90
51567;DHT22;37657;53.182;5.638;2022-08-07T07:29:53;17.60;99.90
51567;DHT22;37657;53.182;5.638;2022-08-07T07:32:22;17.60;99.90
51567;DHT22;37657;53.182;5.638;2022-08-07T07:34:52;17.70;99.90
51567;DHT22;37657;53.182;5.638;2022-08-07T07:37:19;17.70;99.90
51567;DHT22;37657;53.182;5.638;2022-08-07T07:39:47;17.80;99.90
51567;DHT22;37657;53.182;5.638;2022-08-07T07:42:15;17.80;99.90
51567;DHT22;37657;53.182;5.638;2022-08-07T07:44:44;17.90;99.90
51567;DHT22;37657;53.182;5.638;2022-08-07T07:47:11;17.90;99.90
51567;DHT22;37657;53.182;5.638;2022-08-07T07:49:39;17.90;99.90
51567;DHT22;37657;53.182;5.638;2022-08-07T07:52:06;17.90;99.90
51567;DHT22;37657;53.182;5.638;2022-08-07T07:54:33;18.00;99.90
51567;DHT22;37657;53.182;5.638;2022-08-07T07:57:00;18.00;99.90
51567;DHT22;37657;53.182;5.638;2022-08-07T07:59:27;18.00;99.90
51567;DHT22;37657;53.182;5.638;2022-08-07T08:01:55;18.00;99.90
51567;DHT22;37657;53.182;5.638;2022-08-07T08:04:22;18.00;99.90
51567;DHT22;37657;53.182;5.638;2022-08-07T08:06:49;18.10;99.90
51567;DHT22;37657;53.182;5.638;2022-08-07T08:09:18;18.10;99.90
51567;DHT22;37657;53.182;5.638;2022-08-07T08:11:45;18.20;99.90
51567;DHT22;37657;53.182;5.638;2022-08-07T08:14:10;18.20;99.90
51567;DHT22;37657;53.182;5.638;2022-08-07T08:16:42;18.20;99.90
51567;DHT22;37657;53.182;5.638;2022-08-07T08:19:12;18.30;99.90
51567;DHT22;37657;53.182;5.638;2022-08-07T08:21:40;18.40;99.90
51567;DHT22;37657;53.182;5.638;2022-08-07T08:24:28;18.50;99.90
51567;DHT22;37657;53.182;5.638;2022-08-07T08:27:35;18.60;99.90
51567;DHT22;37657;53.182;5.638;2022-08-07T08:30:08;18.70;99.90
51567;DHT22;37657;53.182;5.638;2022-08-07T08:32:38;18.80;99.90
51567;DHT22;37657;53.182;5.638;2022-08-07T08:35:09;18.60;99.90
51567;DHT22;37657;53.182;5.638;2022-08-07T08:37:36;18.60;99.90
51567;DHT22;37657;53.182;5.638;2022-08-07T08:40:09;18.70;99.90
51567;DHT22;37657;53.182;5.638;2022-08-07T08:42:51;18.90;99.90
51567;DHT22;37657;53.182;5.638;2022-08-07T08:45:25;19.10;99.90
51567;DHT22;37657;53.182;5.638;2022-08-07T08:50:55;19.30;99.90
51567;DHT22;37657;53.182;5.638;2022-08-07T08:53:43;19.30;99.90
51567;DHT22;37657;53.182;5.638;2022-08-07T08:56:14;19.40;99.90
51567;DHT22;37657;53.182;5.638;2022-08-07T08:59:45;19.50;99.90
51567;DHT22;37657;53.182;5.638;2022-08-07T09:02:14;19.70;99.90
51567;DHT22;37657;53.182;5.638;2022-08-07T09:10:47;19.80;99.90
51567;DHT22;37657;53.182;5.638;2022-08-07T09:13:39;19.90;99.90
51567;DHT22;37657;53.182;5.638;2022-08-07T09:16:23;19.90;99.90
51567;DHT22;37657;53.182;5.638;2022-08-07T09:19:14;19.90;99.90
51567;DHT22;37657;53.182;5.638;2022-08-07T09:21:46;19.80;99.90
51567;DHT22;37657;53.182;5.638;2022-08-07T09:35:06;20.10;99.90
51567;DHT22;37657;53.182;5.638;2022-08-07T09:40:31;20.40;99.90
51567;DHT22;37657;53.182;5.638;2022-08-07T09:43:21;20.50;99.90
51567;DHT22;37657;53.182;5.638;2022-08-07T09:48:24;20.80;99.90
51567;DHT22;37657;53.182;5.638;2022-08-07T09:53:21;20.90;99.90
51567;DHT22;37657;53.182;5.638;2022-08-07T09:56:22;20.80;99.90
51567;DHT22;37657;53.182;5.638;2022-08-07T09:59:28;20.90;99.90
51567;DHT22;37657;53.182;5.638;2022-08-07T10:02:38;21.10;99.90
51567;DHT22;37657;53.182;5.638;2022-08-07T10:07:57;21.20;99.90
51567;DHT22;37657;53.182;5.638;2022-08-07T10:13:13;21.30;99.90
51567;DHT22;37657;53.182;5.638;2022-08-07T10:23:58;21.40;99.90
51567;DHT22;37657;53.182;5.638;2022-08-07T10:26:29;21.40;99.90
51567;DHT22;37657;53.182;5.638;2022-08-07T10:29:26;21.40;99.90
51567;DHT22;37657;53.182;5.638;2022-08-07T10:34:58;21.60;99.90
51567;DHT22;37657;53.182;5.638;2022-08-07T10:38:13;21.70;99.90
51567;DHT22;37657;53.182;5.638;2022-08-07T10:40:52;21.70;99.90
51567;DHT22;37657;53.182;5.638;2022-08-07T10:43:25;21.80;99.90
51567;DHT22;37657;53.182;5.638;2022-08-07T10:45:57;21.80;99.90
51567;DHT22;37657;53.182;5.638;2022-08-07T10:57:02;22.10;99.90
51567;DHT22;37657;53.182;5.638;2022-08-07T10:59:58;22.10;99.90
51567;DHT22;37657;53.182;5.638;2022-08-07T11:05:43;22.30;99.90
51567;DHT22;37657;53.182;5.638;2022-08-07T11:08:25;22.30;99.90
51567;DHT22;37657;53.182;5.638;2022-08-07T11:16:33;22.40;99.90
51567;DHT22;37657;53.182;5.638;2022-08-07T11:21:44;22.70;99.90
51567;DHT22;37657;53.182;5.638;2022-08-07T11:24:24;22.70;99.90
51567;DHT22;37657;53.182;5.638;2022-08-07T11:26:58;22.80;99.90
51567;DHT22;37657;53.182;5.638;2022-08-07T11:29:37;22.90;99.90
51567;DHT22;37657;53.182;5.638;2022-08-07T11:32:09;22.80;99.90
51567;DHT22;37657;53.182;5.638;2022-08-07T11:48:42;22.80;99.90
51567;DHT22;37657;53.182;5.638;2022-08-07T11:56:40;23.10;99.90
51567;DHT22;37657;53.182;5.638;2022-08-07T12:07:39;23.00;99.90
51567;DHT22;37657;53.182;5.638;2022-08-07T12:10:14;22.80;99.90
51567;DHT22;37657;53.182;5.638;2022-08-07T12:16:03;22.90;99.90
51567;DHT22;37657;53.182;5.638;2022-08-07T12:19:12;23.00;99.90
51567;DHT22;37657;53.182;5.638;2022-08-07T12:21:53;23.10;99.90
51567;DHT22;37657;53.182;5.638;2022-08-07T12:27:34;23.30;99.90
51567;DHT22;37657;53.182;5.638;2022-08-07T12:30:06;23.50;99.90
51567;DHT22;37657;53.182;5.638;2022-08-07T12:32:44;23.40;99.90
51567;DHT22;37657;53.182;5.638;2022-08-07T12:35:13;23.40;99.90
51567;DHT22;37657;53.182;5.638;2022-08-07T12:37:40;23.40;99.90
51567;DHT22;37657;53.182;5.638;2022-08-07T12:40:08;23.10;99.90
51567;DHT22;37657;53.182;5.638;2022-08-07T12:42:35;22.80;99.90
51567;DHT22;37657;53.182;5.638;2022-08-07T12:45:11;22.70;99.90
51567;DHT22;37657;53.182;5.638;2022-08-07T12:50:49;22.80;99.90
51567;DHT22;37657;53.182;5.638;2022-08-07T12:56:01;23.00;99.90
51567;DHT22;37657;53.182;5.638;2022-08-07T12:58:32;23.00;99.90
51567;DHT22;37657;53.182;5.638;2022-08-07T13:04:09;23.00;99.90
51567;DHT22;37657;53.182;5.638;2022-08-07T13:13:09;22.40;99.90
51567;DHT22;37657;53.182;5.638;2022-08-07T13:15:55;22.30;99.90
51567;DHT22;37657;53.182;5.638;2022-08-07T13:18:49;22.20;99.90
51567;DHT22;37657;53.182;5.638;2022-08-07T13:21:21;22.00;99.90
51567;DHT22;37657;53.182;5.638;2022-08-07T13:26:45;22.20;99.90
51567;DHT22;37657;53.182;5.638;2022-08-07T13:29:19;22.30;99.90
51567;DHT22;37657;53.182;5.638;2022-08-07T13:31:52;22.40;99.90
51567;DHT22;37657;53.182;5.638;2022-08-07T13:36:54;22.40;99.90
51567;DHT22;37657;53.182;5.638;2022-08-07T13:39:35;22.40;99.90
51567;DHT22;37657;53.182;5.638;2022-08-07T13:42:04;22.50;99.90
51567;DHT22;37657;53.182;5.638;2022-08-07T13:44:36;22.60;99.90
51567;DHT22;37657;53.182;5.638;2022-08-07T13:47:04;22.70;99.90
51567;DHT22;37657;53.182;5.638;2022-08-07T13:49:37;22.90;99.90
51567;DHT22;37657;53.182;5.638;2022-08-07T13:52:05;22.50;99.90
51567;DHT22;37657;53.182;5.638;2022-08-07T13:54:32;22.10;99.90
51567;DHT22;37657;53.182;5.638;2022-08-07T13:57:01;21.90;99.90
51567;DHT22;37657;53.182;5.638;2022-08-07T13:59:30;21.80;99.90
51567;DHT22;37657;53.182;5.638;2022-08-07T14:02:06;21.60;99.90
51567;DHT22;37657;53.182;5.638;2022-08-07T14:04:50;21.30;99.90
51567;DHT22;37657;53.182;5.638;2022-08-07T14:07:22;21.40;99.90
51567;DHT22;37657;53.182;5.638;2022-08-07T14:09:53;21.50;99.90
51567;DHT22;37657;53.182;5.638;2022-08-07T14:12:25;21.60;99.90
51567;DHT22;37657;53.182;5.638;2022-08-07T14:15:00;21.70;99.90
51567;DHT22;37657;53.182;5.638;2022-08-07T14:17:29;21.50;99.90
51567;DHT22;37657;53.182;5.638;2022-08-07T14:20:12;21.50;99.90
51567;DHT22;37657;53.182;5.638;2022-08-07T14:22:42;21.60;99.90
51567;DHT22;37657;53.182;5.638;2022-08-07T14:25:12;21.70;99.90
51567;DHT22;37657;53.182;5.638;2022-08-07T14:27:44;21.80;99.90
51567;DHT22;37657;53.182;5.638;2022-08-07T14:30:11;21.80;99.90
51567;DHT22;37657;53.182;5.638;2022-08-07T14:32:58;21.90;99.90
51567;DHT22;37657;53.182;5.638;2022-08-07T14:35:29;22.00;99.90
51567;DHT22;37657;53.182;5.638;2022-08-07T14:37:56;22.10;99.90
51567;DHT22;37657;53.182;5.638;2022-08-07T14:40:24;21.90;99.90
51567;DHT22;37657;53.182;5.638;2022-08-07T14:42:55;21.90;99.90
51567;DHT22;37657;53.182;5.638;2022-08-07T14:45:44;21.70;99.90
51567;DHT22;37657;53.182;5.638;2022-08-07T14:48:12;21.80;99.90
51567;DHT22;37657;53.182;5.638;2022-08-07T14:50:51;21.70;99.90
51567;DHT22;37657;53.182;5.638;2022-08-07T14:53:19;21.70;99.90
51567;DHT22;37657;53.182;5.638;2022-08-07T14:56:06;21.90;99.90
51567;DHT22;37657;53.182;5.638;2022-08-07T14:58:36;21.90;99.90
51567;DHT22;37657;53.182;5.638;2022-08-07T15:01:04;21.70;99.90
51567;DHT22;37657;53.182;5.638;2022-08-07T15:03:31;21.70;99.90
51567;DHT22;37657;53.182;5.638;2022-08-07T15:05:58;21.70;99.90
51567;DHT22;37657;53.182;5.638;2022-08-07T15:08:28;21.70;99.90
51567;DHT22;37657;53.182;5.638;2022-08-07T15:10:57;21.70;99.90
51567;DHT22;37657;53.182;5.638;2022-08-07T15:13:25;21.80;99.90
51567;DHT22;37657;53.182;5.638;2022-08-07T15:15:56;21.80;99.90
51567;DHT22;37657;53.182;5.638;2022-08-07T15:18:37;21.60;99.90
51567;DHT22;37657;53.182;5.638;2022-08-07T15:21:25;21.50;99.90
51567;DHT22;37657;53.182;5.638;2022-08-07T15:23:56;21.50;99.90
51567;DHT22;37657;53.182;5.638;2022-08-07T15:26:35;21.40;99.90
51567;DHT22;37657;53.182;5.638;2022-08-07T15:29:02;21.30;99.90
51567;DHT22;37657;53.182;5.638;2022-08-07T15:31:29;21.30;99.90
51567;DHT22;37657;53.182;5.638;2022-08-07T15:33:59;21.40;99.90
51567;DHT22;37657;53.182;5.638;2022-08-07T15:36:27;21.40;99.90
51567;DHT22;37657;53.182;5.638;2022-08-07T15:38:53;21.50;99.90
51567;DHT22;37657;53.182;5.638;2022-08-07T15:41:24;21.40;99.90
51567;DHT22;37657;53.182;5.638;2022-08-07T15:44:06;21.20;99.90
51567;DHT22;37657;53.182;5.638;2022-08-07T15:46:34;21.10;99.90
51567;DHT22;37657;53.182;5.638;2022-08-07T15:49:04;21.10;99.90
51567;DHT22;37657;53.182;5.638;2022-08-07T15:51:31;21.10;99.90
51567;DHT22;37657;53.182;5.638;2022-08-07T15:53:59;20.90;99.90
51567;DHT22;37657;53.182;5.638;2022-08-07T15:56:35;20.70;99.90
51567;DHT22;37657;53.182;5.638;2022-08-07T15:59:03;20.70;99.90
51567;DHT22;37657;53.182;5.638;2022-08-07T16:01:32;20.60;99.90
51567;DHT22;37657;53.182;5.638;2022-08-07T16:04:01;20.60;99.90
51567;DHT22;37657;53.182;5.638;2022-08-07T16:06:33;20.70;99.90
51567;DHT22;37657;53.182;5.638;2022-08-07T16:09:38;20.90;99.90
51567;DHT22;37657;53.182;5.638;2022-08-07T16:12:24;20.80;99.90
51567;DHT22;37657;53.182;5.638;2022-08-07T16:18:12;20.80;99.90
51567;DHT22;37657;53.182;5.638;2022-08-07T16:21:00;20.90;99.90
51567;DHT22;37657;53.182;5.638;2022-08-07T16:26:32;20.90;99.90
51567;DHT22;37657;53.182;5.638;2022-08-07T16:29:29;20.70;99.90
51567;DHT22;37657;53.182;5.638;2022-08-07T16:32:11;20.80;99.90
51567;DHT22;37657;53.182;5.638;2022-08-07T16:34:49;20.80;99.90
51567;DHT22;37657;53.182;5.638;2022-08-07T16:37:47;20.70;99.90
51567;DHT22;37657;53.182;5.638;2022-08-07T16:43:22;20.50;99.90
51567;DHT22;37657;53.182;5.638;2022-08-07T16:52:16;20.40;99.90
51567;DHT22;37657;53.182;5.638;2022-08-07T16:55:25;20.40;99.90
51567;DHT22;37657;53.182;5.638;2022-08-07T16:58:02;20.50;99.90
51567;DHT22;37657;53.182;5.638;2022-08-07T17:01:33;20.60;99.90
51567;DHT22;37657;53.182;5.638;2022-08-07T17:03:33;20.50;99.90
51567;DHT22;37657;53.182;5.638;2022-08-07T17:06:19;20.40;99.90
51567;DHT22;37657;53.182;5.638;2022-08-07T17:09:12;20.50;99.90
51567;DHT22;37657;53.182;5.638;2022-08-07T17:11:50;20.40;99.90
51567;DHT22;37657;53.182;5.638;2022-08-07T17:17:33;20.40;99.90
51567;DHT22;37657;53.182;5.638;2022-08-07T17:20:02;20.30;99.90
51567;DHT22;37657;53.182;5.638;2022-08-07T17:22:38;20.30;99.90
51567;DHT22;37657;53.182;5.638;2022-08-07T17:25:15;20.30;99.90
51567;DHT22;37657;53.182;5.638;2022-08-07T17:27:54;20.40;99.90
51567;DHT22;37657;53.182;5.638;2022-08-07T17:30:25;20.40;99.90
51567;DHT22;37657;53.182;5.638;2022-08-07T17:33:14;20.20;99.90
51567;DHT22;37657;53.182;5.638;2022-08-07T17:41:21;20.20;99.90
51567;DHT22;37657;53.182;5.638;2022-08-07T17:43:55;20.10;99.90
51567;DHT22;37657;53.182;5.638;2022-08-07T17:46:32;20.20;99.90
51567;DHT22;37657;53.182;5.638;2022-08-07T17:49:17;20.20;99.90
51567;DHT22;37657;53.182;5.638;2022-08-07T17:57:19;20.00;99.90
51567;DHT22;37657;53.182;5.638;2022-08-07T17:59:51;20.00;99.90
51567;DHT22;37657;53.182;5.638;2022-08-07T18:02:46;20.00;99.90
51567;DHT22;37657;53.182;5.638;2022-08-07T18:05:22;20.00;99.90
51567;DHT22;37657;53.182;5.638;2022-08-07T18:10:37;19.90;99.90
51567;DHT22;37657;53.182;5.638;2022-08-07T18:13:15;19.90;99.90
51567;DHT22;37657;53.182;5.638;2022-08-07T18:16:03;19.90;99.90
51567;DHT22;37657;53.182;5.638;2022-08-07T18:18:37;19.80;99.90
51567;DHT22;37657;53.182;5.638;2022-08-07T18:21:39;19.80;99.90
51567;DHT22;37657;53.182;5.638;2022-08-07T18:24:31;19.80;99.90
51567;DHT22;37657;53.182;5.638;2022-08-07T18:27:23;19.70;99.90
51567;DHT22;37657;53.182;5.638;2022-08-07T18:30:04;19.70;99.90
51567;DHT22;37657;53.182;5.638;2022-08-07T18:36:02;19.50;99.90
51567;DHT22;37657;53.182;5.638;2022-08-07T18:38:50;19.50;99.90
51567;DHT22;37657;53.182;5.638;2022-08-07T18:41:27;19.40;99.90
51567;DHT22;37657;53.182;5.638;2022-08-07T18:47:08;19.30;99.90
51567;DHT22;37657;53.182;5.638;2022-08-07T18:55:28;19.00;99.90